sensor_id;sensor_type;location;lat;lon;timestamp;P1;durP1;ratioP1;P2;durP2;ratioP2
75774;SDS011;64505;51.458;7.556;2023-05-27T00:01:52;11.50;;;3.80;;
75774;SDS011;64505;51.458;7.556;2023-05-27T00:03:54;13.85;;;3.22;;
75774;SDS011;64505;51.458;7.556;2023-05-27T00:05:56;12.82;;;2.90;;
75774;SDS011;64505;51.458;7.556;2023-05-27T00:07:57;10.63;;;2.70;;
75774;SDS011;64505;51.458;7.556;2023-05-27T00:09:59;12.70;;;3.03;;
75774;SDS011;64505;51.458;7.556;2023-05-27T00:12:01;11.88;;;3.03;;
75774;SDS011;64505;51.458;7.556;2023-05-27T00:14:02;13.95;;;3.15;;
75774;SDS011;64505;51.458;7.556;2023-05-27T00:16:04;16.33;;;3.38;;
75774;SDS011;64505;51.458;7.556;2023-05-27T00:18:06;15.20;;;3.30;;
75774;SDS011;64505;51.458;7.556;2023-05-27T00:20:08;11.55;;;3.15;;
75774;SDS011;64505;51.458;7.556;2023-05-27T00:22:11;12.32;;;3.72;;
75774;SDS011;64505;51.458;7.556;2023-05-27T00:24:13;16.92;;;3.85;;
75774;SDS011;64505;51.458;7.556;2023-05-27T00:26:18;14.70;;;3.42;;
75774;SDS011;64505;51.458;7.556;2023-05-27T00:28:19;11.85;;;3.75;;
75774;SDS011;64505;51.458;7.556;2023-05-27T00:30:21;11.65;;;2.80;;
75774;SDS011;64505;51.458;7.556;2023-05-27T00:32:23;15.05;;;3.38;;
75774;SDS011;64505;51.458;7.556;2023-05-27T00:34:24;13.77;;;3.00;;
75774;SDS011;64505;51.458;7.556;2023-05-27T00:36:26;15.63;;;3.95;;
75774;SDS011;64505;51.458;7.556;2023-05-27T00:38:28;13.13;;;3.38;;
75774;SDS011;64505;51.458;7.556;2023-05-27T00:40:29;14.55;;;3.50;;
75774;SDS011;64505;51.458;7.556;2023-05-27T00:42:32;12.20;;;3.13;;
75774;SDS011;64505;51.458;7.556;2023-05-27T00:44:33;14.88;;;3.17;;
75774;SDS011;64505;51.458;7.556;2023-05-27T00:46:35;12.25;;;3.10;;
75774;SDS011;64505;51.458;7.556;2023-05-27T00:48:37;12.57;;;3.30;;
75774;SDS011;64505;51.458;7.556;2023-05-27T00:50:38;12.98;;;3.08;;
75774;SDS011;64505;51.458;7.556;2023-05-27T00:52:43;14.15;;;3.13;;
75774;SDS011;64505;51.458;7.556;2023-05-27T00:54:44;13.85;;;3.03;;
75774;SDS011;64505;51.458;7.556;2023-05-27T00:56:46;15.48;;;3.53;;
75774;SDS011;64505;51.458;7.556;2023-05-27T00:58:48;13.95;;;3.90;;
75774;SDS011;64505;51.458;7.556;2023-05-27T01:00:50;10.82;;;2.97;;
75774;SDS011;64505;51.458;7.556;2023-05-27T01:02:52;12.20;;;3.03;;
75774;SDS011;64505;51.458;7.556;2023-05-27T01:04:54;14.00;;;3.20;;
75774;SDS011;64505;51.458;7.556;2023-05-27T01:09:20;16.35;;;4.03;;
75774;SDS011;64505;51.458;7.556;2023-05-27T01:11:25;15.02;;;3.85;;
75774;SDS011;64505;51.458;7.556;2023-05-27T01:13:38;18.02;;;3.50;;
75774;SDS011;64505;51.458;7.556;2023-05-27T01:15:42;12.18;;;3.58;;
75774;SDS011;64505;51.458;7.556;2023-05-27T01:17:44;13.57;;;3.30;;
75774;SDS011;64505;51.458;7.556;2023-05-27T01:19:49;13.75;;;3.45;;
75774;SDS011;64505;51.458;7.556;2023-05-27T01:21:51;10.32;;;3.30;;
75774;SDS011;64505;51.458;7.556;2023-05-27T01:24:02;18.27;;;3.88;;
75774;SDS011;64505;51.458;7.556;2023-05-27T01:26:04;14.40;;;2.80;;
75774;SDS011;64505;51.458;7.556;2023-05-27T01:28:06;12.95;;;3.15;;
75774;SDS011;64505;51.458;7.556;2023-05-27T01:30:08;15.15;;;3.90;;
75774;SDS011;64505;51.458;7.556;2023-05-27T01:34:33;15.48;;;3.25;;
75774;SDS011;64505;51.458;7.556;2023-05-27T01:36:59;15.10;;;3.63;;
75774;SDS011;64505;51.458;7.556;2023-05-27T01:39:01;12.60;;;3.45;;
75774;SDS011;64505;51.458;7.556;2023-05-27T01:41:03;12.73;;;3.55;;
75774;SDS011;64505;51.458;7.556;2023-05-27T01:43:06;17.23;;;3.65;;
75774;SDS011;64505;51.458;7.556;2023-05-27T01:45:08;14.80;;;3.45;;
75774;SDS011;64505;51.458;7.556;2023-05-27T01:47:11;16.65;;;4.03;;
75774;SDS011;64505;51.458;7.556;2023-05-27T01:49:13;18.75;;;3.47;;
75774;SDS011;64505;51.458;7.556;2023-05-27T01:51:15;15.25;;;3.63;;
75774;SDS011;64505;51.458;7.556;2023-05-27T01:53:16;11.80;;;3.40;;
75774;SDS011;64505;51.458;7.556;2023-05-27T01:55:18;13.98;;;3.30;;
75774;SDS011;64505;51.458;7.556;2023-05-27T01:57:20;18.85;;;3.97;;
75774;SDS011;64505;51.458;7.556;2023-05-27T01:59:22;14.77;;;3.13;;
75774;SDS011;64505;51.458;7.556;2023-05-27T02:01:24;14.05;;;3.60;;
75774;SDS011;64505;51.458;7.556;2023-05-27T02:03:26;14.82;;;4.18;;
75774;SDS011;64505;51.458;7.556;2023-05-27T02:05:28;19.00;;;3.97;;
75774;SDS011;64505;51.458;7.556;2023-05-27T02:07:30;11.23;;;3.45;;
75774;SDS011;64505;51.458;7.556;2023-05-27T02:09:31;16.00;;;3.22;;
75774;SDS011;64505;51.458;7.556;2023-05-27T02:11:33;17.60;;;3.60;;
75774;SDS011;64505;51.458;7.556;2023-05-27T02:13:37;17.73;;;4.07;;
75774;SDS011;64505;51.458;7.556;2023-05-27T02:15:39;15.18;;;4.10;;
75774;SDS011;64505;51.458;7.556;2023-05-27T02:17:41;12.63;;;3.65;;
75774;SDS011;64505;51.458;7.556;2023-05-27T02:19:46;15.05;;;3.83;;
75774;SDS011;64505;51.458;7.556;2023-05-27T02:21:48;17.27;;;3.47;;
75774;SDS011;64505;51.458;7.556;2023-05-27T02:23:50;15.98;;;3.80;;
75774;SDS011;64505;51.458;7.556;2023-05-27T02:25:54;14.30;;;3.58;;
75774;SDS011;64505;51.458;7.556;2023-05-27T02:27:56;16.80;;;3.70;;
75774;SDS011;64505;51.458;7.556;2023-05-27T02:29:57;11.63;;;3.50;;
75774;SDS011;64505;51.458;7.556;2023-05-27T02:31:59;12.95;;;4.07;;
75774;SDS011;64505;51.458;7.556;2023-05-27T02:34:01;19.48;;;4.28;;
75774;SDS011;64505;51.458;7.556;2023-05-27T02:36:03;15.63;;;3.72;;
75774;SDS011;64505;51.458;7.556;2023-05-27T02:38:05;9.50;;;3.53;;
75774;SDS011;64505;51.458;7.556;2023-05-27T02:40:07;14.85;;;3.85;;
75774;SDS011;64505;51.458;7.556;2023-05-27T02:42:10;13.05;;;3.78;;
75774;SDS011;64505;51.458;7.556;2023-05-27T02:44:12;14.43;;;3.95;;
75774;SDS011;64505;51.458;7.556;2023-05-27T02:46:13;11.35;;;3.88;;
75774;SDS011;64505;51.458;7.556;2023-05-27T02:48:15;15.70;;;3.75;;
75774;SDS011;64505;51.458;7.556;2023-05-27T02:50:17;14.93;;;4.05;;
75774;SDS011;64505;51.458;7.556;2023-05-27T02:52:19;13.55;;;4.15;;
75774;SDS011;64505;51.458;7.556;2023-05-27T02:54:20;15.77;;;4.20;;
75774;SDS011;64505;51.458;7.556;2023-05-27T02:56:22;14.32;;;4.07;;
75774;SDS011;64505;51.458;7.556;2023-05-27T02:58:23;15.13;;;4.10;;
75774;SDS011;64505;51.458;7.556;2023-05-27T03:00:25;12.10;;;4.07;;
75774;SDS011;64505;51.458;7.556;2023-05-27T03:02:28;13.77;;;4.13;;
75774;SDS011;64505;51.458;7.556;2023-05-27T03:04:30;14.88;;;3.78;;
75774;SDS011;64505;51.458;7.556;2023-05-27T03:06:31;11.77;;;4.05;;
75774;SDS011;64505;51.458;7.556;2023-05-27T03:08:36;14.77;;;4.35;;
75774;SDS011;64505;51.458;7.556;2023-05-27T03:10:37;14.00;;;4.47;;
75774;SDS011;64505;51.458;7.556;2023-05-27T03:12:39;15.50;;;4.07;;
75774;SDS011;64505;51.458;7.556;2023-05-27T03:14:40;13.90;;;3.70;;
75774;SDS011;64505;51.458;7.556;2023-05-27T03:16:42;11.90;;;3.70;;
75774;SDS011;64505;51.458;7.556;2023-05-27T03:18:44;11.88;;;3.65;;
75774;SDS011;64505;51.458;7.556;2023-05-27T03:20:46;14.65;;;3.78;;
75774;SDS011;64505;51.458;7.556;2023-05-27T03:22:48;14.00;;;3.92;;
75774;SDS011;64505;51.458;7.556;2023-05-27T03:24:50;13.20;;;3.80;;
75774;SDS011;64505;51.458;7.556;2023-05-27T03:26:52;16.50;;;4.40;;
75774;SDS011;64505;51.458;7.556;2023-05-27T03:28:54;10.68;;;4.13;;
75774;SDS011;64505;51.458;7.556;2023-05-27T03:30:56;16.17;;;4.20;;
75774;SDS011;64505;51.458;7.556;2023-05-27T03:32:57;16.15;;;4.30;;
75774;SDS011;64505;51.458;7.556;2023-05-27T03:34:59;16.52;;;4.13;;
75774;SDS011;64505;51.458;7.556;2023-05-27T03:37:01;13.25;;;3.85;;
75774;SDS011;64505;51.458;7.556;2023-05-27T03:39:02;11.93;;;4.03;;
75774;SDS011;64505;51.458;7.556;2023-05-27T03:41:05;15.88;;;4.85;;
75774;SDS011;64505;51.458;7.556;2023-05-27T03:43:09;16.35;;;4.50;;
75774;SDS011;64505;51.458;7.556;2023-05-27T03:45:12;12.90;;;3.75;;
75774;SDS011;64505;51.458;7.556;2023-05-27T03:47:13;16.38;;;4.65;;
75774;SDS011;64505;51.458;7.556;2023-05-27T03:49:18;13.77;;;4.15;;
75774;SDS011;64505;51.458;7.556;2023-05-27T03:51:20;13.45;;;3.92;;
75774;SDS011;64505;51.458;7.556;2023-05-27T03:53:22;13.50;;;4.55;;
75774;SDS011;64505;51.458;7.556;2023-05-27T03:55:24;14.70;;;4.25;;
75774;SDS011;64505;51.458;7.556;2023-05-27T03:57:26;16.80;;;4.57;;
75774;SDS011;64505;51.458;7.556;2023-05-27T03:59:28;14.55;;;5.15;;
75774;SDS011;64505;51.458;7.556;2023-05-27T04:01:29;12.57;;;4.40;;
75774;SDS011;64505;51.458;7.556;2023-05-27T04:03:31;13.70;;;4.38;;
75774;SDS011;64505;51.458;7.556;2023-05-27T04:05:34;16.73;;;4.68;;
75774;SDS011;64505;51.458;7.556;2023-05-27T04:07:38;16.08;;;4.38;;
75774;SDS011;64505;51.458;7.556;2023-05-27T04:09:39;12.98;;;4.47;;
75774;SDS011;64505;51.458;7.556;2023-05-27T04:11:41;14.57;;;4.13;;
75774;SDS011;64505;51.458;7.556;2023-05-27T04:13:42;18.63;;;4.70;;
75774;SDS011;64505;51.458;7.556;2023-05-27T04:15:45;17.38;;;4.88;;
75774;SDS011;64505;51.458;7.556;2023-05-27T04:17:47;15.13;;;4.47;;
75774;SDS011;64505;51.458;7.556;2023-05-27T04:19:49;15.88;;;4.82;;
75774;SDS011;64505;51.458;7.556;2023-05-27T04:21:50;19.70;;;5.25;;
75774;SDS011;64505;51.458;7.556;2023-05-27T04:23:52;19.02;;;4.93;;
75774;SDS011;64505;51.458;7.556;2023-05-27T04:25:54;17.35;;;4.53;;
75774;SDS011;64505;51.458;7.556;2023-05-27T04:27:55;9.55;;;4.22;;
75774;SDS011;64505;51.458;7.556;2023-05-27T04:29:57;14.05;;;4.53;;
75774;SDS011;64505;51.458;7.556;2023-05-27T04:31:59;14.95;;;4.47;;
75774;SDS011;64505;51.458;7.556;2023-05-27T04:34:02;12.18;;;3.83;;
75774;SDS011;64505;51.458;7.556;2023-05-27T04:36:04;14.73;;;4.50;;
75774;SDS011;64505;51.458;7.556;2023-05-27T04:38:06;12.25;;;4.10;;
75774;SDS011;64505;51.458;7.556;2023-05-27T04:40:09;11.07;;;4.50;;
75774;SDS011;64505;51.458;7.556;2023-05-27T04:42:12;14.20;;;4.78;;
75774;SDS011;64505;51.458;7.556;2023-05-27T04:44:16;13.30;;;4.10;;
75774;SDS011;64505;51.458;7.556;2023-05-27T04:46:18;13.23;;;4.97;;
75774;SDS011;64505;51.458;7.556;2023-05-27T04:48:20;18.15;;;4.50;;
75774;SDS011;64505;51.458;7.556;2023-05-27T04:50:24;14.63;;;5.35;;
75774;SDS011;64505;51.458;7.556;2023-05-27T04:52:26;17.73;;;4.35;;
75774;SDS011;64505;51.458;7.556;2023-05-27T04:54:28;15.80;;;5.07;;
75774;SDS011;64505;51.458;7.556;2023-05-27T04:56:30;15.88;;;4.63;;
75774;SDS011;64505;51.458;7.556;2023-05-27T04:58:32;16.90;;;5.18;;
75774;SDS011;64505;51.458;7.556;2023-05-27T05:00:35;17.73;;;4.75;;
75774;SDS011;64505;51.458;7.556;2023-05-27T05:02:40;18.50;;;5.13;;
75774;SDS011;64505;51.458;7.556;2023-05-27T05:04:43;15.35;;;4.75;;
75774;SDS011;64505;51.458;7.556;2023-05-27T05:06:45;14.73;;;4.57;;
75774;SDS011;64505;51.458;7.556;2023-05-27T05:08:46;18.23;;;5.20;;
75774;SDS011;64505;51.458;7.556;2023-05-27T05:10:48;14.23;;;4.80;;
75774;SDS011;64505;51.458;7.556;2023-05-27T05:12:51;13.77;;;4.75;;
75774;SDS011;64505;51.458;7.556;2023-05-27T05:14:52;16.95;;;4.63;;
75774;SDS011;64505;51.458;7.556;2023-05-27T05:16:54;18.13;;;4.70;;
75774;SDS011;64505;51.458;7.556;2023-05-27T05:18:55;16.23;;;4.50;;
75774;SDS011;64505;51.458;7.556;2023-05-27T05:20:58;17.80;;;5.45;;
75774;SDS011;64505;51.458;7.556;2023-05-27T05:23:00;12.05;;;4.50;;
75774;SDS011;64505;51.458;7.556;2023-05-27T05:25:01;13.88;;;4.55;;
75774;SDS011;64505;51.458;7.556;2023-05-27T05:27:03;19.13;;;5.30;;
75774;SDS011;64505;51.458;7.556;2023-05-27T05:29:05;16.85;;;5.00;;
75774;SDS011;64505;51.458;7.556;2023-05-27T05:31:06;13.52;;;4.38;;
75774;SDS011;64505;51.458;7.556;2023-05-27T05:33:08;21.17;;;5.00;;
75774;SDS011;64505;51.458;7.556;2023-05-27T05:35:10;17.15;;;5.07;;
75774;SDS011;64505;51.458;7.556;2023-05-27T05:37:12;14.25;;;5.03;;
75774;SDS011;64505;51.458;7.556;2023-05-27T05:39:13;17.80;;;5.55;;
75774;SDS011;64505;51.458;7.556;2023-05-27T05:41:16;15.30;;;4.65;;
75774;SDS011;64505;51.458;7.556;2023-05-27T05:43:18;14.68;;;4.80;;
75774;SDS011;64505;51.458;7.556;2023-05-27T05:45:20;17.90;;;4.88;;
75774;SDS011;64505;51.458;7.556;2023-05-27T05:47:22;14.18;;;4.57;;
75774;SDS011;64505;51.458;7.556;2023-05-27T05:49:24;17.98;;;5.43;;
75774;SDS011;64505;51.458;7.556;2023-05-27T05:51:25;15.00;;;5.38;;
75774;SDS011;64505;51.458;7.556;2023-05-27T05:53:27;19.40;;;5.18;;
75774;SDS011;64505;51.458;7.556;2023-05-27T05:55:29;12.10;;;4.57;;
75774;SDS011;64505;51.458;7.556;2023-05-27T05:57:31;13.63;;;4.22;;
75774;SDS011;64505;51.458;7.556;2023-05-27T05:59:36;18.17;;;5.35;;
75774;SDS011;64505;51.458;7.556;2023-05-27T06:01:38;19.35;;;6.40;;
75774;SDS011;64505;51.458;7.556;2023-05-27T06:03:39;17.90;;;5.38;;
75774;SDS011;64505;51.458;7.556;2023-05-27T06:05:41;20.45;;;5.97;;
75774;SDS011;64505;51.458;7.556;2023-05-27T06:07:43;13.57;;;5.28;;
75774;SDS011;64505;51.458;7.556;2023-05-27T06:09:44;19.15;;;5.93;;
75774;SDS011;64505;51.458;7.556;2023-05-27T06:11:46;16.65;;;5.95;;
75774;SDS011;64505;51.458;7.556;2023-05-27T06:13:47;14.30;;;4.85;;
75774;SDS011;64505;51.458;7.556;2023-05-27T06:15:49;15.20;;;4.55;;
75774;SDS011;64505;51.458;7.556;2023-05-27T06:17:52;19.35;;;5.43;;
75774;SDS011;64505;51.458;7.556;2023-05-27T06:19:54;14.13;;;4.80;;
75774;SDS011;64505;51.458;7.556;2023-05-27T06:21:56;14.75;;;4.70;;
75774;SDS011;64505;51.458;7.556;2023-05-27T06:23:58;12.02;;;4.68;;
75774;SDS011;64505;51.458;7.556;2023-05-27T06:26:00;19.85;;;5.13;;
75774;SDS011;64505;51.458;7.556;2023-05-27T06:28:03;15.52;;;5.25;;
75774;SDS011;64505;51.458;7.556;2023-05-27T06:30:05;16.92;;;5.18;;
75774;SDS011;64505;51.458;7.556;2023-05-27T06:32:07;15.82;;;5.28;;
75774;SDS011;64505;51.458;7.556;2023-05-27T06:34:09;20.38;;;5.50;;
75774;SDS011;64505;51.458;7.556;2023-05-27T06:36:11;18.67;;;5.25;;
75774;SDS011;64505;51.458;7.556;2023-05-27T06:38:12;17.50;;;5.28;;
75774;SDS011;64505;51.458;7.556;2023-05-27T06:40:14;15.02;;;4.93;;
75774;SDS011;64505;51.458;7.556;2023-05-27T06:42:16;16.30;;;5.00;;
75774;SDS011;64505;51.458;7.556;2023-05-27T06:44:17;18.08;;;5.25;;
75774;SDS011;64505;51.458;7.556;2023-05-27T06:46:19;15.48;;;4.72;;
75774;SDS011;64505;51.458;7.556;2023-05-27T06:48:21;17.27;;;4.80;;
75774;SDS011;64505;51.458;7.556;2023-05-27T06:50:22;12.73;;;5.25;;
75774;SDS011;64505;51.458;7.556;2023-05-27T06:52:24;14.90;;;5.07;;
75774;SDS011;64505;51.458;7.556;2023-05-27T06:54:26;20.20;;;5.70;;
75774;SDS011;64505;51.458;7.556;2023-05-27T06:56:27;17.77;;;5.13;;
75774;SDS011;64505;51.458;7.556;2023-05-27T06:58:29;17.17;;;4.82;;
75774;SDS011;64505;51.458;7.556;2023-05-27T07:00:31;14.20;;;5.22;;
75774;SDS011;64505;51.458;7.556;2023-05-27T07:02:32;14.10;;;4.78;;
75774;SDS011;64505;51.458;7.556;2023-05-27T07:04:34;16.45;;;5.72;;
75774;SDS011;64505;51.458;7.556;2023-05-27T07:06:36;16.55;;;5.93;;
75774;SDS011;64505;51.458;7.556;2023-05-27T07:08:39;12.45;;;4.43;;
75774;SDS011;64505;51.458;7.556;2023-05-27T07:10:40;15.00;;;4.82;;
75774;SDS011;64505;51.458;7.556;2023-05-27T07:12:42;17.15;;;6.15;;
75774;SDS011;64505;51.458;7.556;2023-05-27T07:14:44;18.15;;;5.40;;
75774;SDS011;64505;51.458;7.556;2023-05-27T07:16:45;13.40;;;4.85;;
75774;SDS011;64505;51.458;7.556;2023-05-27T07:18:47;17.65;;;5.20;;
75774;SDS011;64505;51.458;7.556;2023-05-27T07:20:48;18.13;;;5.65;;
75774;SDS011;64505;51.458;7.556;2023-05-27T07:22:51;16.33;;;5.15;;
75774;SDS011;64505;51.458;7.556;2023-05-27T07:24:52;12.63;;;4.65;;
75774;SDS011;64505;51.458;7.556;2023-05-27T07:26:54;16.48;;;4.97;;
75774;SDS011;64505;51.458;7.556;2023-05-27T07:28:59;12.25;;;5.18;;
75774;SDS011;64505;51.458;7.556;2023-05-27T07:31:01;15.63;;;5.38;;
75774;SDS011;64505;51.458;7.556;2023-05-27T07:33:03;20.67;;;6.28;;
75774;SDS011;64505;51.458;7.556;2023-05-27T07:35:05;15.00;;;5.80;;
75774;SDS011;64505;51.458;7.556;2023-05-27T07:37:07;20.27;;;6.22;;
75774;SDS011;64505;51.458;7.556;2023-05-27T07:39:08;21.40;;;5.80;;
75774;SDS011;64505;51.458;7.556;2023-05-27T07:41:10;15.85;;;4.88;;
75774;SDS011;64505;51.458;7.556;2023-05-27T07:43:12;16.20;;;5.40;;
75774;SDS011;64505;51.458;7.556;2023-05-27T07:45:14;16.55;;;6.32;;
75774;SDS011;64505;51.458;7.556;2023-05-27T07:47:15;18.17;;;5.20;;
75774;SDS011;64505;51.458;7.556;2023-05-27T07:49:17;15.25;;;5.28;;
75774;SDS011;64505;51.458;7.556;2023-05-27T07:51:19;18.02;;;5.30;;
75774;SDS011;64505;51.458;7.556;2023-05-27T07:53:21;16.83;;;5.68;;
75774;SDS011;64505;51.458;7.556;2023-05-27T07:55:23;14.07;;;5.30;;
75774;SDS011;64505;51.458;7.556;2023-05-27T07:57:25;20.83;;;6.38;;
75774;SDS011;64505;51.458;7.556;2023-05-27T07:59:27;14.88;;;5.22;;
75774;SDS011;64505;51.458;7.556;2023-05-27T08:01:29;19.65;;;5.63;;
75774;SDS011;64505;51.458;7.556;2023-05-27T08:03:33;17.52;;;5.43;;
75774;SDS011;64505;51.458;7.556;2023-05-27T08:05:35;19.00;;;5.38;;
75774;SDS011;64505;51.458;7.556;2023-05-27T08:07:37;12.52;;;4.72;;
75774;SDS011;64505;51.458;7.556;2023-05-27T08:09:38;17.33;;;5.55;;
75774;SDS011;64505;51.458;7.556;2023-05-27T08:11:40;17.38;;;5.32;;
75774;SDS011;64505;51.458;7.556;2023-05-27T08:13:42;18.70;;;5.22;;
75774;SDS011;64505;51.458;7.556;2023-05-27T08:15:43;18.05;;;5.88;;
75774;SDS011;64505;51.458;7.556;2023-05-27T08:17:45;15.27;;;5.57;;
75774;SDS011;64505;51.458;7.556;2023-05-27T08:19:47;14.70;;;5.03;;
75774;SDS011;64505;51.458;7.556;2023-05-27T08:21:48;15.52;;;4.75;;
75774;SDS011;64505;51.458;7.556;2023-05-27T08:23:50;15.57;;;5.03;;
75774;SDS011;64505;51.458;7.556;2023-05-27T08:25:51;16.58;;;4.90;;
75774;SDS011;64505;51.458;7.556;2023-05-27T08:27:53;14.55;;;5.35;;
75774;SDS011;64505;51.458;7.556;2023-05-27T08:30:03;19.40;;;5.18;;
75774;SDS011;64505;51.458;7.556;2023-05-27T08:32:05;14.95;;;5.30;;
75774;SDS011;64505;51.458;7.556;2023-05-27T08:34:07;17.02;;;6.10;;
75774;SDS011;64505;51.458;7.556;2023-05-27T08:36:09;17.08;;;5.63;;
75774;SDS011;64505;51.458;7.556;2023-05-27T08:38:12;15.93;;;4.80;;
75774;SDS011;64505;51.458;7.556;2023-05-27T08:40:15;19.73;;;5.80;;
75774;SDS011;64505;51.458;7.556;2023-05-27T08:42:17;16.42;;;5.00;;
75774;SDS011;64505;51.458;7.556;2023-05-27T08:44:22;14.85;;;4.95;;
75774;SDS011;64505;51.458;7.556;2023-05-27T08:46:24;18.65;;;5.30;;
75774;SDS011;64505;51.458;7.556;2023-05-27T08:48:27;14.98;;;4.75;;
75774;SDS011;64505;51.458;7.556;2023-05-27T08:50:29;20.50;;;5.13;;
75774;SDS011;64505;51.458;7.556;2023-05-27T08:52:31;13.82;;;5.00;;
75774;SDS011;64505;51.458;7.556;2023-05-27T08:54:33;14.23;;;4.93;;
75774;SDS011;64505;51.458;7.556;2023-05-27T08:56:39;16.30;;;4.95;;
75774;SDS011;64505;51.458;7.556;2023-05-27T08:58:41;16.50;;;4.97;;
75774;SDS011;64505;51.458;7.556;2023-05-27T09:00:44;16.63;;;4.32;;
75774;SDS011;64505;51.458;7.556;2023-05-27T09:02:46;18.38;;;4.28;;
75774;SDS011;64505;51.458;7.556;2023-05-27T09:04:48;16.38;;;4.25;;
75774;SDS011;64505;51.458;7.556;2023-05-27T09:06:51;18.05;;;5.60;;
75774;SDS011;64505;51.458;7.556;2023-05-27T09:08:53;16.52;;;4.53;;
75774;SDS011;64505;51.458;7.556;2023-05-27T09:10:55;14.18;;;4.28;;
75774;SDS011;64505;51.458;7.556;2023-05-27T09:12:57;12.77;;;4.65;;
75774;SDS011;64505;51.458;7.556;2023-05-27T09:14:59;15.55;;;5.00;;
75774;SDS011;64505;51.458;7.556;2023-05-27T09:17:04;17.20;;;5.38;;
75774;SDS011;64505;51.458;7.556;2023-05-27T09:19:14;17.13;;;4.65;;
75774;SDS011;64505;51.458;7.556;2023-05-27T09:21:19;18.98;;;4.78;;
75774;SDS011;64505;51.458;7.556;2023-05-27T09:23:21;13.77;;;4.88;;
75774;SDS011;64505;51.458;7.556;2023-05-27T09:25:23;14.85;;;4.43;;
75774;SDS011;64505;51.458;7.556;2023-05-27T09:27:30;17.33;;;4.28;;
75774;SDS011;64505;51.458;7.556;2023-05-27T09:29:32;15.18;;;4.35;;
75774;SDS011;64505;51.458;7.556;2023-05-27T09:31:39;16.83;;;4.25;;
75774;SDS011;64505;51.458;7.556;2023-05-27T09:33:42;15.18;;;4.80;;
75774;SDS011;64505;51.458;7.556;2023-05-27T09:35:44;16.75;;;4.70;;
75774;SDS011;64505;51.458;7.556;2023-05-27T09:37:45;17.58;;;5.20;;
75774;SDS011;64505;51.458;7.556;2023-05-27T09:39:47;12.30;;;4.35;;
75774;SDS011;64505;51.458;7.556;2023-05-27T09:41:55;13.90;;;4.32;;
75774;SDS011;64505;51.458;7.556;2023-05-27T09:43:59;16.05;;;3.90;;
75774;SDS011;64505;51.458;7.556;2023-05-27T09:46:02;12.10;;;3.50;;
75774;SDS011;64505;51.458;7.556;2023-05-27T09:48:09;16.80;;;4.82;;
75774;SDS011;64505;51.458;7.556;2023-05-27T09:50:13;16.50;;;4.22;;
75774;SDS011;64505;51.458;7.556;2023-05-27T09:52:18;16.75;;;4.18;;
75774;SDS011;64505;51.458;7.556;2023-05-27T09:54:21;14.68;;;4.43;;
75774;SDS011;64505;51.458;7.556;2023-05-27T09:56:24;14.93;;;3.55;;
75774;SDS011;64505;51.458;7.556;2023-05-27T09:58:29;14.80;;;3.85;;
75774;SDS011;64505;51.458;7.556;2023-05-27T10:00:31;15.50;;;4.22;;
75774;SDS011;64505;51.458;7.556;2023-05-27T10:02:34;10.65;;;4.20;;
75774;SDS011;64505;51.458;7.556;2023-05-27T10:04:37;15.63;;;4.32;;
75774;SDS011;64505;51.458;7.556;2023-05-27T10:06:39;9.25;;;3.55;;
75774;SDS011;64505;51.458;7.556;2023-05-27T10:08:42;12.88;;;3.95;;
75774;SDS011;64505;51.458;7.556;2023-05-27T10:10:45;12.88;;;4.07;;
75774;SDS011;64505;51.458;7.556;2023-05-27T10:12:49;13.95;;;4.30;;
75774;SDS011;64505;51.458;7.556;2023-05-27T10:14:52;13.13;;;4.60;;
75774;SDS011;64505;51.458;7.556;2023-05-27T10:16:55;16.00;;;4.20;;
75774;SDS011;64505;51.458;7.556;2023-05-27T10:18:58;19.15;;;4.97;;
75774;SDS011;64505;51.458;7.556;2023-05-27T10:21:00;12.27;;;4.03;;
75774;SDS011;64505;51.458;7.556;2023-05-27T10:25:14;13.80;;;4.90;;
75774;SDS011;64505;51.458;7.556;2023-05-27T10:27:17;15.15;;;4.65;;
75774;SDS011;64505;51.458;7.556;2023-05-27T10:29:19;15.40;;;4.60;;
75774;SDS011;64505;51.458;7.556;2023-05-27T10:31:20;13.45;;;4.43;;
75774;SDS011;64505;51.458;7.556;2023-05-27T10:33:29;13.93;;;4.50;;
75774;SDS011;64505;51.458;7.556;2023-05-27T10:35:38;14.80;;;4.28;;
75774;SDS011;64505;51.458;7.556;2023-05-27T10:37:41;15.32;;;4.72;;
75774;SDS011;64505;51.458;7.556;2023-05-27T10:39:52;14.30;;;4.45;;
75774;SDS011;64505;51.458;7.556;2023-05-27T10:41:55;13.68;;;3.95;;
75774;SDS011;64505;51.458;7.556;2023-05-27T10:43:58;11.70;;;4.13;;
75774;SDS011;64505;51.458;7.556;2023-05-27T10:46:01;9.20;;;3.75;;
75774;SDS011;64505;51.458;7.556;2023-05-27T10:48:14;15.00;;;4.53;;
75774;SDS011;64505;51.458;7.556;2023-05-27T10:50:16;13.32;;;3.85;;
75774;SDS011;64505;51.458;7.556;2023-05-27T10:52:18;14.90;;;4.00;;
75774;SDS011;64505;51.458;7.556;2023-05-27T10:54:20;13.23;;;4.05;;
75774;SDS011;64505;51.458;7.556;2023-05-27T10:56:30;10.55;;;4.10;;
75774;SDS011;64505;51.458;7.556;2023-05-27T10:58:34;14.52;;;4.03;;
75774;SDS011;64505;51.458;7.556;2023-05-27T11:00:37;14.50;;;4.88;;
75774;SDS011;64505;51.458;7.556;2023-05-27T11:02:41;13.40;;;3.95;;
75774;SDS011;64505;51.458;7.556;2023-05-27T11:04:44;14.60;;;4.60;;
75774;SDS011;64505;51.458;7.556;2023-05-27T11:06:56;12.10;;;4.10;;
75774;SDS011;64505;51.458;7.556;2023-05-27T11:09:03;10.00;;;3.70;;
75774;SDS011;64505;51.458;7.556;2023-05-27T11:11:05;14.00;;;4.25;;
75774;SDS011;64505;51.458;7.556;2023-05-27T11:13:08;14.45;;;4.00;;
75774;SDS011;64505;51.458;7.556;2023-05-27T11:15:10;10.98;;;4.13;;
75774;SDS011;64505;51.458;7.556;2023-05-27T11:17:12;11.85;;;4.32;;
75774;SDS011;64505;51.458;7.556;2023-05-27T11:19:14;13.65;;;4.15;;
75774;SDS011;64505;51.458;7.556;2023-05-27T11:21:16;12.45;;;3.70;;
75774;SDS011;64505;51.458;7.556;2023-05-27T11:23:18;11.43;;;3.60;;
75774;SDS011;64505;51.458;7.556;2023-05-27T11:25:20;9.80;;;4.03;;
75774;SDS011;64505;51.458;7.556;2023-05-27T11:27:21;15.55;;;3.97;;
75774;SDS011;64505;51.458;7.556;2023-05-27T11:29:23;13.60;;;4.00;;
75774;SDS011;64505;51.458;7.556;2023-05-27T11:31:28;13.10;;;3.55;;
75774;SDS011;64505;51.458;7.556;2023-05-27T11:33:32;13.52;;;3.88;;
75774;SDS011;64505;51.458;7.556;2023-05-27T11:37:39;15.80;;;4.05;;
75774;SDS011;64505;51.458;7.556;2023-05-27T11:39:50;15.65;;;4.05;;
75774;SDS011;64505;51.458;7.556;2023-05-27T11:41:53;11.77;;;3.38;;
75774;SDS011;64505;51.458;7.556;2023-05-27T11:43:56;13.00;;;3.63;;
75774;SDS011;64505;51.458;7.556;2023-05-27T11:46:04;12.88;;;4.15;;
75774;SDS011;64505;51.458;7.556;2023-05-27T11:48:06;13.68;;;3.70;;
75774;SDS011;64505;51.458;7.556;2023-05-27T11:50:10;12.30;;;4.63;;
75774;SDS011;64505;51.458;7.556;2023-05-27T11:52:12;11.57;;;4.13;;
75774;SDS011;64505;51.458;7.556;2023-05-27T11:54:17;13.20;;;4.15;;
75774;SDS011;64505;51.458;7.556;2023-05-27T11:56:29;11.80;;;3.50;;
75774;SDS011;64505;51.458;7.556;2023-05-27T11:58:31;11.50;;;3.53;;
75774;SDS011;64505;51.458;7.556;2023-05-27T12:00:33;14.35;;;3.53;;
75774;SDS011;64505;51.458;7.556;2023-05-27T12:02:35;13.45;;;3.60;;
75774;SDS011;64505;51.458;7.556;2023-05-27T12:04:37;15.43;;;4.07;;
75774;SDS011;64505;51.458;7.556;2023-05-27T12:06:38;10.15;;;3.00;;
75774;SDS011;64505;51.458;7.556;2023-05-27T12:08:42;13.25;;;3.45;;
75774;SDS011;64505;51.458;7.556;2023-05-27T12:10:44;10.45;;;3.25;;
75774;SDS011;64505;51.458;7.556;2023-05-27T12:12:47;13.43;;;3.95;;
75774;SDS011;64505;51.458;7.556;2023-05-27T12:14:49;12.90;;;3.22;;
75774;SDS011;64505;51.458;7.556;2023-05-27T12:16:50;12.88;;;3.35;;
75774;SDS011;64505;51.458;7.556;2023-05-27T12:18:52;10.85;;;3.20;;